Time;durP1;ratioP1;P1;durP2;ratioP2;P2;SDS_P1;SDS_P2;PMS_P1;PMS_P2;Temp;Humidity;BMP_temperature;BMP_pressure;BME280_temperature;BME280_humidity;BME280_pressure;Samples;Min_cycle;Max_cycle;Signal;HPM_P1;HPM_P2
2023/10/25 00:00:57;;;;;;;10.30;8.70;;;;;;;11.26;100.00;96355.38;6230130;28;20247;-49
2023/10/25 00:04:00;;;;;;;10.07;8.97;;;;;;;11.39;100.00;96364.63;6231015;28;20223;-50
2023/10/25 00:07:02;;;;;;;10.50;9.20;;;;;;;11.39;100.00;96366.50;6232888;28;20235;-52
2023/10/25 00:10:05;;;;;;;12.67;9.23;;;;;;;11.35;100.00;96367.03;6226935;28;20691;-51
2023/10/25 00:13:07;;;;;;;12.23;9.57;;;;;;;11.34;100.00;96359.31;6228645;28;20601;-51
2023/10/25 00:16:09;;;;;;;11.30;8.57;;;;;;;11.33;100.00;96363.06;6229394;28;20232;-52
2023/10/25 00:19:12;;;;;;;13.90;9.83;;;;;;;11.31;100.00;96359.88;6228442;28;20242;-50
2023/10/25 00:22:14;;;;;;;10.73;9.63;;;;;;;11.30;100.00;96367.06;6227278;28;20300;-53
2023/10/25 00:25:17;;;;;;;11.80;9.60;;;;;;;11.29;100.00;96368.16;6228118;28;20238;-51
2023/10/25 00:28:19;;;;;;;13.03;11.60;;;;;;;11.30;100.00;96371.63;6228091;28;20236;-52
2023/10/25 00:31:21;;;;;;;14.30;11.50;;;;;;;11.40;100.00;96368.88;6227130;28;20765;-53
2023/10/25 00:34:24;;;;;;;13.07;11.60;;;;;;;11.40;100.00;96376.88;6227304;28;20246;-49
2023/10/25 00:37:28;;;;;;;14.57;11.00;;;;;;;11.43;100.00;96368.31;6227236;28;20703;-52
2023/10/25 00:40:30;;;;;;;15.23;12.53;;;;;;;11.41;100.00;96375.00;6226558;28;20389;-51
2023/10/25 00:43:32;;;;;;;15.50;12.93;;;;;;;11.43;100.00;96375.50;6227957;28;20314;-54
2023/10/25 00:46:36;;;;;;;18.73;13.43;;;;;;;11.35;100.00;96369.69;6228322;28;20330;-52
2023/10/25 00:49:39;;;;;;;16.27;13.20;;;;;;;11.29;100.00;96346.81;6258470;28;20389;-53
2023/10/25 00:52:41;;;;;;;16.60;13.40;;;;;;;11.30;100.00;96366.28;6227582;28;20235;-52
2023/10/25 00:55:44;;;;;;;16.13;13.50;;;;;;;11.38;100.00;96360.38;6224166;28;20285;-50
2023/10/25 00:58:51;;;;;;;16.10;12.30;;;;;;;11.34;100.00;96356.66;6227447;28;21110;-50
2023/10/25 01:01:54;;;;;;;14.73;11.80;;;;;;;11.40;100.00;96352.06;6228439;28;20236;-52
2023/10/25 01:04:57;;;;;;;14.17;12.20;;;;;;;11.43;100.00;96360.31;6227701;28;20255;-51
2023/10/25 01:07:59;;;;;;;13.60;12.20;;;;;;;11.43;100.00;96370.16;6222216;28;20376;-52
2023/10/25 01:11:03;;;;;;;14.00;11.23;;;;;;;11.35;100.00;96361.69;6221068;28;20232;-50
2023/10/25 01:14:06;;;;;;;12.03;10.73;;;;;;;11.32;100.00;96372.91;6227731;28;20446;-48
2023/10/25 01:17:08;;;;;;;11.87;10.47;;;;;;;11.27;100.00;96366.81;6219782;28;20227;-52
2023/10/25 01:20:11;;;;;;;16.33;11.30;;;;;;;11.23;100.00;96366.59;6228163;28;20625;-52
2023/10/25 01:23:13;;;;;;;12.77;11.37;;;;;;;11.25;100.00;96371.66;6220302;28;20243;-53
2023/10/25 01:26:16;;;;;;;11.33;10.23;;;;;;;11.43;100.00;96367.50;6227104;28;20437;-51
2023/10/25 01:29:18;;;;;;;10.50;9.10;;;;;;;11.34;100.00;96370.78;6225954;28;20242;-51
2023/10/25 01:32:21;;;;;;;10.73;9.63;;;;;;;11.32;100.00;96367.56;6225062;28;20703;-48
2023/10/25 01:35:23;;;;;;;12.33;9.17;;;;;;;11.31;100.00;96370.53;6227122;28;20234;-49
2023/10/25 01:38:25;;;;;;;11.10;9.50;;;;;;;11.29;100.00;96373.47;6227495;28;20227;-54
2023/10/25 01:41:28;;;;;;;9.43;8.33;;;;;;;11.25;100.00;96393.78;6227859;28;20235;-51
2023/10/25 01:44:31;;;;;;;10.27;9.27;;;;;;;11.16;100.00;96389.31;6224765;28;20231;-52
2023/10/25 01:47:34;;;;;;;10.27;8.43;;;;;;;11.24;100.00;96391.41;6227876;28;20227;-51
2023/10/25 01:50:36;;;;;;;12.93;8.97;;;;;;;11.18;100.00;96409.28;6224747;28;20231;-53
2023/10/25 01:53:39;;;;;;;9.17;8.10;;;;;;;11.17;100.00;96397.00;6226976;28;20238;-49
2023/10/25 01:56:41;;;;;;;9.70;8.70;;;;;;;11.17;100.00;96418.34;6258202;28;20314;-53
2023/10/25 01:59:43;;;;;;;10.87;9.87;;;;;;;11.33;100.00;96411.84;6226973;28;20227;-51
2023/10/25 02:02:46;;;;;;;8.50;7.60;;;;;;;11.35;100.00;96407.03;6225435;28;20238;-49
2023/10/25 02:05:48;;;;;;;7.87;7.07;;;;;;;11.23;100.00;96403.94;6209276;28;20722;-52
2023/10/25 02:08:51;;;;;;;9.20;8.20;;;;;;;11.26;100.00;96421.22;6224832;28;20269;-51
2023/10/25 02:11:53;;;;;;;9.37;8.37;;;;;;;11.25;100.00;96417.75;6221493;28;20277;-50
2023/10/25 02:14:55;;;;;;;8.13;7.33;;;;;;;11.19;100.00;96418.09;6233210;28;20227;-48
2023/10/25 02:17:58;;;;;;;11.37;8.00;;;;;;;11.27;100.00;96428.94;6227727;28;20219;-50
2023/10/25 02:21:00;;;;;;;9.83;8.40;;;;;;;11.37;100.00;96444.06;6228122;28;20228;-52
2023/10/25 02:24:05;;;;;;;11.10;8.53;;;;;;;11.46;100.00;96434.41;6226563;28;20238;-50
2023/10/25 02:27:09;;;;;;;8.10;7.30;;;;;;;11.20;100.00;96411.66;6225940;28;20656;-54
2023/10/25 02:30:11;;;;;;;8.50;7.60;;;;;;;11.32;100.00;96444.91;6231785;28;20236;-52
2023/10/25 02:33:14;;;;;;;9.23;8.33;;;;;;;11.48;100.00;96453.63;6229121;28;20297;-50
2023/10/25 02:36:16;;;;;;;8.40;7.50;;;;;;;11.45;100.00;96458.69;6231318;28;20270;-50
2023/10/25 02:39:19;;;;;;;10.27;8.03;;;;;;;11.47;100.00;96461.88;6230219;28;20208;-51
2023/10/25 02:42:21;;;;;;;8.67;7.77;;;;;;;11.57;100.00;96454.59;6231129;28;21929;-49
2023/10/25 02:45:24;;;;;;;8.03;7.23;;;;;;;11.74;100.00;96458.75;6231880;28;20226;-52
2023/10/25 02:48:26;;;;;;;8.00;7.20;;;;;;;11.60;100.00;96466.59;6228968;28;20224;-51
2023/10/25 02:51:28;;;;;;;10.80;8.20;;;;;;;11.63;100.00;96474.06;6228986;28;20235;-50
2023/10/25 02:54:30;;;;;;;12.63;7.53;;;;;;;11.55;100.00;96480.75;6229128;28;20366;-52
2023/10/25 02:57:33;;;;;;;8.07;6.90;;;;;;;11.51;100.00;96481.59;6230756;28;20724;-52
2023/10/25 03:00:36;;;;;;;7.93;7.20;;;;;;;11.44;100.00;96476.56;6229879;28;20228;-51
2023/10/25 03:03:40;;;;;;;7.97;7.03;;;;;;;11.43;100.00;96477.66;6230700;28;20260;-49
2023/10/25 03:06:43;;;;;;;10.03;7.33;;;;;;;11.32;100.00;96468.09;6229157;28;20231;-51
2023/10/25 03:09:45;;;;;;;7.83;7.03;;;;;;;11.39;100.00;96483.81;6230374;28;20238;-51
2023/10/25 03:12:48;;;;;;;7.60;6.80;;;;;;;11.35;100.00;96479.03;6224693;28;20721;-52
2023/10/25 03:15:51;;;;;;;7.13;6.43;;;;;;;11.24;100.00;96476.69;6230907;28;20698;-53
2023/10/25 03:18:53;;;;;;;7.20;6.20;;;;;;;11.15;100.00;96463.13;6229037;28;20239;-51
2023/10/25 03:21:56;;;;;;;6.97;6.27;;;;;;;11.33;100.00;96502.50;6228918;28;20232;-52
2023/10/25 03:24:59;;;;;;;6.93;6.23;;;;;;;11.40;100.00;96472.06;6229321;28;20238;-49
2023/10/25 03:28:01;;;;;;;6.83;6.07;;;;;;;11.34;100.00;96493.44;6227270;28;20707;-52
2023/10/25 03:31:05;;;;;;;6.10;5.53;;;;;;;11.46;100.00;96506.41;6229794;28;20227;-49
2023/10/25 03:34:08;;;;;;;5.70;5.07;;;;;;;11.41;100.00;96501.09;6229401;28;20235;-53
2023/10/25 03:37:10;;;;;;;5.37;4.87;;;;;;;11.31;100.00;96501.97;6230097;28;20236;-52
2023/10/25 03:40:14;;;;;;;5.60;5.10;;;;;;;11.23;100.00;96515.88;6229284;28;20223;-51
2023/10/25 03:43:16;;;;;;;5.47;4.90;;;;;;;11.35;100.00;96518.22;6226800;28;20881;-52
2023/10/25 03:46:19;;;;;;;8.03;5.57;;;;;;;11.26;100.00;96520.66;6229901;28;20246;-52
2023/10/25 03:49:22;;;;;;;5.40;4.43;;;;;;;11.23;100.00;96529.22;6229749;28;20241;-51
2023/10/25 03:52:24;;;;;;;6.03;5.43;;;;;;;11.18;100.00;96539.09;6229706;28;20289;-52
2023/10/25 03:55:27;;;;;;;5.53;4.97;;;;;;;11.11;100.00;96526.84;6229169;28;20236;-50
2023/10/25 03:58:31;;;;;;;6.33;5.30;;;;;;;10.98;100.00;96519.44;6225032;28;20877;-51
2023/10/25 04:01:33;;;;;;;6.10;5.50;;;;;;;11.09;100.00;96536.22;6230101;28;20228;-49
2023/10/25 04:04:36;;;;;;;6.80;4.93;;;;;;;10.88;100.00;96511.47;6230175;28;20749;-49
2023/10/25 04:07:39;;;;;;;6.80;4.90;;;;;;;11.04;100.00;96549.56;6229144;28;20273;-53
2023/10/25 04:10:41;;;;;;;6.47;5.40;;;;;;;11.03;100.00;96551.44;6225255;28;20275;-50
2023/10/25 04:13:43;;;;;;;5.57;5.07;;;;;;;10.95;100.00;96543.19;6224692;28;20750;-51
2023/10/25 04:16:46;;;;;;;7.73;6.33;;;;;;;10.93;100.00;96550.63;6228788;28;20434;-51
2023/10/25 04:19:48;;;;;;;6.83;5.77;;;;;;;10.97;100.00;96557.03;6229649;28;20339;-51
2023/10/25 04:22:51;;;;;;;8.07;6.27;;;;;;;10.97;100.00;96563.16;6227447;28;20585;-52
2023/10/25 04:26:03;;;;;;;8.17;6.97;;;;;;;10.93;100.00;96564.75;6229507;28;20748;-52
2023/10/25 04:29:05;;;;;;;8.00;6.13;;;;;;;11.00;100.00;96567.16;6226117;28;20243;-52
2023/10/25 04:32:07;;;;;;;8.47;7.57;;;;;;;11.22;100.00;96574.78;6228786;28;20688;-52
2023/10/25 04:35:10;;;;;;;5.77;5.27;;;;;;;11.29;100.00;96568.09;6227843;28;20273;-54
2023/10/25 04:38:12;;;;;;;7.83;6.20;;;;;;;11.43;100.00;96580.81;6228285;28;20227;-52
2023/10/25 04:41:14;;;;;;;6.73;5.20;;;;;;;11.51;100.00;96572.25;6223631;28;20268;-52
2023/10/25 04:44:16;;;;;;;8.03;6.93;;;;;;;11.56;100.00;96581.03;6228178;28;20619;-52
2023/10/25 04:47:19;;;;;;;6.27;5.67;;;;;;;11.58;100.00;96584.25;6227265;28;20588;-51
2023/10/25 04:50:21;;;;;;;6.83;5.80;;;;;;;11.44;100.00;96577.91;6228324;28;20643;-52
2023/10/25 04:53:24;;;;;;;6.70;5.77;;;;;;;11.50;100.00;96595.47;6228574;28;20367;-52
2023/10/25 04:56:26;;;;;;;5.87;5.27;;;;;;;11.45;100.00;96602.69;6228043;28;20275;-52
2023/10/25 04:59:30;;;;;;;6.20;5.60;;;;;;;11.43;100.00;96600.31;6228397;28;20228;-50
2023/10/25 05:02:32;;;;;;;5.63;5.13;;;;;;;11.41;100.00;96594.44;6227769;28;20224;-53
2023/10/25 05:05:37;;;;;;;6.10;5.20;;;;;;;11.40;100.00;96602.72;6227420;28;20322;-52
2023/10/25 05:08:40;;;;;;;6.30;5.70;;;;;;;11.38;100.00;96600.34;6227655;28;20242;-50
2023/10/25 05:11:54;;;;;;;6.00;5.40;;;;;;;11.39;100.00;96596.59;6221296;28;20583;-51
2023/10/25 05:14:57;;;;;;;7.03;5.97;;;;;;;11.37;100.00;96593.38;6227983;28;20715;-49
2023/10/25 05:18:00;;;;;;;6.07;5.47;;;;;;;11.48;100.00;96586.16;6227836;28;20254;-53
2023/10/25 05:21:03;;;;;;;4.90;4.50;;;;;;;11.55;100.00;96583.97;6221799;28;20707;-53
2023/10/25 05:24:07;;;;;;;6.80;4.97;;;;;;;11.54;100.00;96593.84;6227889;28;20226;-50
2023/10/25 05:27:10;;;;;;;4.73;4.33;;;;;;;11.51;100.00;96589.06;6226325;28;20220;-52
2023/10/25 05:30:14;;;;;;;5.37;4.87;;;;;;;11.47;100.00;96585.34;6227155;28;20235;-52
2023/10/25 05:33:19;;;;;;;4.40;4.00;;;;;;;11.58;100.00;96583.44;6227282;28;20222;-52
2023/10/25 05:36:21;;;;;;;4.30;3.90;;;;;;;11.56;100.00;96591.69;6226736;28;20243;-51
2023/10/25 05:39:24;;;;;;;3.93;3.63;;;;;;;11.51;100.00;96588.25;6226009;28;20233;-53
2023/10/25 05:42:29;;;;;;;4.37;3.97;;;;;;;11.46;100.00;96590.97;6228133;28;20718;-52
2023/10/25 05:45:32;;;;;;;4.83;4.10;;;;;;;11.41;100.00;96598.97;6226279;28;20235;-51
2023/10/25 05:48:34;;;;;;;4.93;3.87;;;;;;;11.38;100.00;96605.66;6223582;28;20239;-51
2023/10/25 05:51:37;;;;;;;5.07;3.73;;;;;;;11.28;100.00;96611.84;6227093;28;20234;-52
2023/10/25 05:54:39;;;;;;;3.83;3.43;;;;;;;11.28;100.00;96622.50;6227627;28;20857;-52
2023/10/25 05:57:42;;;;;;;3.60;3.30;;;;;;;11.27;100.00;96618.22;6226741;28;20223;-51
2023/10/25 06:00:49;;;;;;;3.50;3.20;;;;;;;11.26;100.00;96629.16;6227369;28;20232;-52
2023/10/25 06:03:54;;;;;;;4.17;3.40;;;;;;;11.27;100.00;96630.75;6230651;28;20342;-53
2023/10/25 06:06:57;;;;;;;3.50;3.20;;;;;;;11.27;100.00;96631.56;6231413;28;20634;-51
2023/10/25 06:10:00;;;;;;;3.50;3.20;;;;;;;11.30;100.00;96628.34;6230991;28;20243;-51
2023/10/25 06:13:02;;;;;;;3.43;2.57;;;;;;;11.36;100.00;96639.78;6231366;28;20326;-50
2023/10/25 06:16:05;;;;;;;3.63;2.23;;;;;;;11.36;100.00;96637.91;6221686;28;20834;-49
2023/10/25 06:19:07;;;;;;;3.53;3.10;;;;;;;11.42;100.00;96637.91;6232074;28;20232;-49
2023/10/25 06:22:10;;;;;;;3.07;2.87;;;;;;;11.44;100.00;96646.44;6231734;28;20267;-52
2023/10/25 06:25:12;;;;;;;3.13;2.67;;;;;;;11.45;100.00;96648.03;6230214;28;20227;-50
2023/10/25 06:28:15;;;;;;;4.67;4.27;;;;;;;11.53;100.00;96666.16;6227603;28;20224;-50
2023/10/25 06:31:17;;;;;;;3.60;3.30;;;;;;;11.63;100.00;96669.56;6233651;28;20330;-51
2023/10/25 06:34:20;;;;;;;4.70;4.30;;;;;;;11.72;100.00;96669.00;6231576;28;20243;-53
2023/10/25 06:37:23;;;;;;;6.90;3.67;;;;;;;11.79;100.00;96669.50;6231092;28;20240;-52
2023/10/25 06:40:25;;;;;;;4.10;3.70;;;;;;;11.90;100.00;96655.06;6231044;28;20246;-51
2023/10/25 06:43:31;;;;;;;4.77;4.37;;;;;;;11.98;100.00;96641.16;6230630;28;20232;-52
2023/10/25 06:46:33;;;;;;;3.97;3.60;;;;;;;11.92;100.00;96634.25;6228120;28;20239;-50
2023/10/25 06:49:36;;;;;;;4.50;3.97;;;;;;;11.99;100.00;96661.41;6230119;28;20224;-49
2023/10/25 06:52:38;;;;;;;4.80;4.40;;;;;;;11.93;100.00;96661.75;6231530;28;20231;-54
2023/10/25 06:55:41;;;;;;;5.37;4.90;;;;;;;12.07;100.00;96681.41;6231653;28;20714;-50
2023/10/25 06:58:43;;;;;;;3.67;3.37;;;;;;;12.07;100.00;96676.88;6231424;28;20330;-52
2023/10/25 07:01:53;;;;;;;3.20;2.97;;;;;;;12.07;100.00;96684.88;6231086;28;20257;-52
2023/10/25 07:05:10;;;;;;;3.20;3.00;;;;;;;12.06;100.00;96682.47;6226682;28;20268;-49
2023/10/25 07:08:13;;;;;;;3.60;2.63;;;;;;;12.04;100.00;96705.97;6227295;28;20264;-49
2023/10/25 07:11:15;;;;;;;4.37;3.97;;;;;;;12.05;100.00;96703.03;6229445;28;20227;-52
2023/10/25 07:14:17;;;;;;;4.60;4.20;;;;;;;12.07;100.00;96703.56;6228231;28;20598;-48
2023/10/25 07:17:19;;;;;;;3.73;3.37;;;;;;;12.21;100.00;96708.28;6234097;28;20240;-52
2023/10/25 07:20:22;;;;;;;3.50;3.20;;;;;;;12.13;100.00;96705.13;6230121;28;20314;-52
2023/10/25 07:23:24;;;;;;;3.87;3.57;;;;;;;12.10;100.00;96703.00;6227488;28;20362;-53
2023/10/25 07:26:26;;;;;;;3.23;2.93;;;;;;;12.13;100.00;96712.34;6226597;28;20789;-52
2023/10/25 07:29:29;;;;;;;4.77;4.37;;;;;;;12.17;100.00;96710.72;6230312;28;20224;-53
2023/10/25 07:32:32;;;;;;;5.33;4.83;;;;;;;12.29;100.00;96710.38;6229728;28;20227;-49
2023/10/25 07:35:34;;;;;;;4.80;4.40;;;;;;;12.33;100.00;96712.22;6228723;28;20809;-52
2023/10/25 07:38:36;;;;;;;4.30;3.90;;;;;;;12.35;100.00;96711.94;6224948;28;20242;-51
2023/10/25 07:41:39;;;;;;;4.53;3.87;;;;;;;12.35;100.00;96711.94;6225170;28;20228;-52
2023/10/25 07:44:41;;;;;;;3.97;3.60;;;;;;;12.30;100.00;96706.63;6229999;28;20239;-53
2023/10/25 07:47:43;;;;;;;4.33;3.93;;;;;;;12.38;100.00;96714.06;6230362;28;20322;-53
2023/10/25 07:50:45;;;;;;;4.07;3.63;;;;;;;12.37;100.00;96729.28;6228720;28;20235;-52
2023/10/25 07:53:48;;;;;;;4.23;3.80;;;;;;;12.32;100.00;96718.66;6228733;28;20615;-52
2023/10/25 07:56:50;;;;;;;3.40;3.10;;;;;;;12.45;100.00;96727.09;6228329;28;20741;-51
2023/10/25 08:00:12;;;;;;;3.30;2.90;;;;;;;12.54;100.00;96728.13;6225984;28;20707;-52
2023/10/25 08:03:17;;;;;;;4.37;3.97;;;;;;;12.60;100.00;96732.34;6234793;28;20215;-50
2023/10/25 08:06:20;;;;;;;3.50;3.20;;;;;;;12.55;100.00;96711.81;6227089;28;20701;-53
2023/10/25 08:09:22;;;;;;;3.27;2.97;;;;;;;12.74;100.00;96740.53;6229230;28;20234;-50
2023/10/25 08:12:24;;;;;;;3.57;3.27;;;;;;;12.72;100.00;96742.69;6227369;28;20397;-52
2023/10/25 08:15:26;;;;;;;3.50;2.50;;;;;;;12.73;100.00;96749.63;6228449;28;20255;-49
2023/10/25 08:18:31;;;;;;;2.73;2.53;;;;;;;12.72;100.00;96750.72;6228323;28;20318;-49
2023/10/25 08:21:35;;;;;;;2.97;2.70;;;;;;;12.70;100.00;96750.19;6228598;28;20232;-52
2023/10/25 08:24:38;;;;;;;4.03;3.30;;;;;;;12.72;100.00;96748.03;6227328;28;20232;-50
2023/10/25 08:27:40;;;;;;;2.77;2.50;;;;;;;12.70;100.00;96737.63;6227253;28;20235;-53
2023/10/25 08:30:42;;;;;;;2.77;2.57;;;;;;;12.75;100.00;96734.09;6212449;28;20314;-53
2023/10/25 08:33:45;;;;;;;2.80;2.17;;;;;;;12.79;100.00;96743.97;6234392;28;20557;-52
2023/10/25 08:36:49;;;;;;;2.37;2.17;;;;;;;12.82;100.00;96729.25;6228214;28;20610;-53
2023/10/25 08:39:51;;;;;;;2.27;2.07;;;;;;;12.86;100.00;96735.66;6224292;28;20385;-51
2023/10/25 08:42:58;;;;;;;3.13;2.50;;;;;;;12.93;100.00;96740.66;6228333;28;20277;-51
2023/10/25 08:46:03;;;;;;;2.93;2.67;;;;;;;13.01;100.00;96737.41;6225924;28;20293;-53
2023/10/25 08:49:05;;;;;;;2.57;2.37;;;;;;;13.05;100.00;96741.91;6233775;28;20223;-51
2023/10/25 08:52:08;;;;;;;2.50;2.20;;;;;;;13.09;100.00;96736.78;6227109;28;20722;-54
2023/10/25 08:55:10;;;;;;;4.97;2.37;;;;;;;13.11;100.00;96743.47;6227962;28;20859;-54
2023/10/25 08:58:13;;;;;;;2.40;2.30;;;;;;;13.21;100.00;96745.25;6223327;28;20242;-53
2023/10/25 09:01:15;;;;;;;2.27;2.17;;;;;;;13.25;100.00;96745.50;6227583;28;20643;-52
2023/10/25 09:04:18;;;;;;;2.50;2.30;;;;;;;13.29;100.00;96746.53;6231695;28;20289;-52
2023/10/25 09:07:30;;;;;;;2.77;2.57;;;;;;;13.36;100.00;96739.78;6228656;28;20273;-52
2023/10/25 09:10:33;;;;;;;2.60;2.40;;;;;;;13.41;100.00;96737.06;6222150;28;20235;-53
2023/10/25 09:13:38;;;;;;;2.37;2.20;;;;;;;13.52;100.00;96735.06;6226553;28;20246;-55
2023/10/25 09:16:42;;;;;;;3.50;1.90;;;;;;;13.68;100.00;96733.81;6222863;28;20799;-54
2023/10/25 09:19:47;;;;;;;2.10;2.00;;;;;;;13.88;97.72;96732.78;6226428;28;20236;-53
2023/10/25 09:22:49;;;;;;;1.73;1.63;;;;;;;13.95;96.68;96729.78;6224243;28;20243;-53
2023/10/25 09:25:52;;;;;;;2.47;1.50;;;;;;;14.02;95.01;96724.06;6227866;28;20231;-54
2023/10/25 09:28:54;;;;;;;1.67;1.57;;;;;;;14.19;91.47;96719.81;6226007;28;20313;-54
2023/10/25 09:32:06;;;;;;;1.63;1.40;;;;;;;14.16;92.34;96692.81;6227709;28;20831;-50
2023/10/25 09:35:10;;;;;;;1.60;1.50;;;;;;;14.39;96.28;96697.31;6229193;28;20223;-53
2023/10/25 09:38:12;;;;;;;1.30;1.20;;;;;;;14.44;94.98;96705.28;6226088;28;20258;-52
2023/10/25 09:41:19;;;;;;;1.70;1.60;;;;;;;14.58;88.05;96701.88;6225357;28;20215;-54
2023/10/25 09:44:28;;;;;;;1.50;1.40;;;;;;;14.61;85.88;96707.47;6227114;28;20234;-53
2023/10/25 09:47:38;;;;;;;1.37;1.27;;;;;;;14.59;88.35;96703.50;6228733;28;20236;-54
2023/10/25 09:50:47;;;;;;;1.13;1.07;;;;;;;14.62;88.48;96706.38;6231380;28;20232;-55
2023/10/25 09:54:18;;;;;;;1.13;1.10;;;;;;;14.62;91.36;96706.38;6224893;28;20236;-53
2023/10/25 09:57:21;;;;;;;0.97;0.90;;;;;;;14.68;89.34;96697.19;6224759;28;20247;-53
2023/10/25 10:00:24;;;;;;;1.00;1.00;;;;;;;14.64;88.56;96676.63;6227627;28;20322;-54
2023/10/25 10:04:00;;;;;;;1.83;1.47;;;;;;;14.79;85.67;96694.34;6226636;28;20235;-53
2023/10/25 10:07:12;;;;;;;0.97;0.90;;;;;;;14.71;91.40;96691.22;6223130;28;20231;-55
2023/10/25 10:10:42;;;;;;;1.30;1.20;;;;;;;14.64;91.36;96690.81;6225422;28;20236;-54
2023/10/25 10:13:44;;;;;;;2.53;1.57;;;;;;;14.57;90.64;96686.88;6227203;28;20232;-55
2023/10/25 10:16:48;;;;;;;1.40;1.30;;;;;;;14.56;91.34;96680.75;6226399;28;20232;-54
2023/10/25 10:19:50;;;;;;;1.60;1.50;;;;;;;14.56;93.17;96675.38;6231306;28;20763;-53
2023/10/25 10:23:06;;;;;;;1.60;1.50;;;;;;;14.56;94.43;96667.34;6227688;28;20239;-53
2023/10/25 10:26:10;;;;;;;1.50;1.40;;;;;;;14.55;90.50;96671.09;6226520;28;20765;-52
2023/10/25 10:29:31;;;;;;;1.30;1.10;;;;;;;14.60;88.44;96667.56;6226883;28;20228;-50
2023/10/25 10:32:33;;;;;;;2.10;1.43;;;;;;;14.62;90.86;96663.47;6223349;28;20227;-54
2023/10/25 10:35:39;;;;;;;1.03;1.00;;;;;;;14.63;89.57;96661.59;6225882;28;20228;-56
2023/10/25 10:39:13;;;;;;;0.93;0.93;;;;;;;14.65;89.33;96651.38;6226272;28;20228;-53
2023/10/25 10:42:20;;;;;;;0.73;0.60;;;;;;;14.71;87.22;96652.91;6206648;28;20232;-54
2023/10/25 10:45:22;;;;;;;0.40;0.40;;;;;;;14.86;85.89;96641.13;6233531;28;20700;-53
2023/10/25 10:48:38;;;;;;;0.30;0.30;;;;;;;15.06;82.39;96635.41;6228168;28;20227;-53
2023/10/25 10:51:41;;;;;;;1.43;0.40;;;;;;;15.05;82.67;96620.41;6229984;28;20240;-54
2023/10/25 10:54:44;;;;;;;0.50;0.50;;;;;;;15.11;77.24;96626.47;6230613;28;20235;-53
2023/10/25 10:57:46;;;;;;;0.30;0.30;;;;;;;15.09;78.72;96612.56;6230322;28;20715;-53
2023/10/25 11:01:09;;;;;;;0.83;0.30;;;;;;;15.16;79.69;96615.63;6228536;28;20240;-53
2023/10/25 11:04:11;;;;;;;0.30;0.30;;;;;;;15.16;80.86;96613.75;6230612;28;20232;-53
2023/10/25 11:07:13;;;;;;;0.40;0.40;;;;;;;15.20;83.14;96611.28;6230568;28;20236;-53
2023/10/25 11:10:16;;;;;;;0.30;0.30;;;;;;;15.25;84.61;96615.75;6229072;28;20243;-57
2023/10/25 11:13:18;;;;;;;0.20;0.20;;;;;;;15.25;79.54;96607.69;6226816;28;20239;-56
2023/10/25 11:16:20;;;;;;;0.30;0.30;;;;;;;15.29;79.79;96603.31;6230010;28;20236;-58
2023/10/25 11:19:22;;;;;;;0.30;0.30;;;;;;;15.37;77.92;96594.56;6229807;28;20227;-56
2023/10/25 11:22:25;;;;;;;0.20;0.20;;;;;;;15.54;77.10;96586.72;6231061;28;20699;-58
2023/10/25 11:25:29;;;;;;;0.37;0.27;;;;;;;15.67;74.87;96583.25;6230443;28;20755;-55
2023/10/25 11:28:32;;;;;;;0.30;0.30;;;;;;;15.71;75.21;96586.94;6230221;28;20227;-56
2023/10/25 11:31:34;;;;;;;0.50;0.30;;;;;;;15.78;78.61;96580.34;6228864;28;20227;-53
2023/10/25 11:34:41;;;;;;;0.70;0.30;;;;;;;15.73;78.20;96582.03;6229069;28;20381;-55
2023/10/25 11:37:45;;;;;;;0.30;0.30;;;;;;;15.70;77.05;96585.31;6230226;28;20367;-54
2023/10/25 11:40:47;;;;;;;0.20;0.20;;;;;;;15.63;77.93;96559.97;6229358;28;20729;-56
2023/10/25 11:43:49;;;;;;;0.30;0.30;;;;;;;15.72;78.04;96567.03;6230249;28;20223;-55
2023/10/25 11:46:55;;;;;;;1.27;0.37;;;;;;;15.74;78.10;96564.81;6228815;28;20235;-57
2023/10/25 11:50:01;;;;;;;0.30;0.30;;;;;;;15.74;81.68;96567.50;6229425;28;20318;-54
2023/10/25 11:53:03;;;;;;;0.20;0.20;;;;;;;15.67;85.07;96569.03;6227654;28;20239;-53
2023/10/25 11:56:05;;;;;;;0.37;0.37;;;;;;;15.65;84.39;96557.78;6225144;28;20223;-54
2023/10/25 11:59:08;;;;;;;0.20;0.20;;;;;;;15.51;85.29;96541.66;6228842;28;20224;-52
2023/10/25 12:02:10;;;;;;;0.30;0.30;;;;;;;15.47;86.54;96548.75;6226183;28;20246;-50
2023/10/25 12:05:13;;;;;;;0.27;0.27;;;;;;;15.36;89.52;96550.03;6229526;28;20258;-54
2023/10/25 12:08:15;;;;;;;0.73;0.33;;;;;;;15.29;90.71;96541.63;6228878;28;20353;-49
2023/10/25 12:11:17;;;;;;;0.43;0.30;;;;;;;15.25;91.67;96533.38;6227566;28;20635;-51
2023/10/25 12:14:20;;;;;;;0.20;0.20;;;;;;;15.28;93.19;96532.78;6228611;28;20234;-53
2023/10/25 12:17:33;;;;;;;0.67;0.30;;;;;;;15.35;93.47;96525.09;6228330;28;20234;-52
2023/10/25 12:20:35;;;;;;;1.37;0.30;;;;;;;15.45;90.35;96521.41;6229193;28;20886;-50
2023/10/25 12:23:41;;;;;;;0.60;0.40;;;;;;;15.61;87.59;96511.13;6229539;28;20231;-52
2023/10/25 12:26:43;;;;;;;0.37;0.30;;;;;;;15.65;85.78;96490.66;6224846;28;20220;-51
2023/10/25 12:29:45;;;;;;;0.30;0.30;;;;;;;15.83;86.63;96507.72;6226529;28;20267;-50
2023/10/25 12:32:48;;;;;;;1.53;0.40;;;;;;;15.80;84.11;96489.53;6227652;28;20385;-52
2023/10/25 12:35:50;;;;;;;0.40;0.40;;;;;;;15.88;87.76;96499.53;6228323;28;20234;-51
2023/10/25 12:38:53;;;;;;;1.23;0.40;;;;;;;15.90;87.65;96508.88;6227830;28;20235;-52
2023/10/25 12:41:55;;;;;;;0.50;0.50;;;;;;;15.91;87.77;96506.97;6227717;28;20246;-51
2023/10/25 12:44:57;;;;;;;0.60;0.60;;;;;;;15.71;84.23;96498.31;6227480;28;20370;-53
2023/10/25 12:47:59;;;;;;;0.50;0.50;;;;;;;15.68;83.74;96496.22;6223972;28;20239;-52
2023/10/25 12:51:02;;;;;;;0.50;0.50;;;;;;;15.69;83.14;96495.13;6227883;28;20377;-53
2023/10/25 12:54:06;;;;;;;0.50;0.50;;;;;;;15.71;81.54;96490.25;6224316;28;20689;-49
2023/10/25 12:57:08;;;;;;;1.77;0.40;;;;;;;15.71;81.33;96502.88;6227503;28;20778;-50
2023/10/25 13:00:11;;;;;;;0.40;0.40;;;;;;;15.71;83.77;96492.94;6227473;28;20251;-52
2023/10/25 13:03:14;;;;;;;0.57;0.47;;;;;;;15.64;85.32;96484.50;6226544;28;20223;-53
2023/10/25 13:06:16;;;;;;;0.50;0.40;;;;;;;15.60;86.24;96488.06;6227867;28;20250;-52
2023/10/25 13:09:20;;;;;;;1.60;0.47;;;;;;;15.56;87.19;96482.50;6227320;28;20215;-51
2023/10/25 13:12:23;;;;;;;1.20;0.50;;;;;;;15.48;89.35;96489.41;6224581;28;20362;-50
2023/10/25 13:15:25;;;;;;;0.40;0.40;;;;;;;15.39;83.87;96472.41;6228011;28;20289;-52
2023/10/25 13:18:27;;;;;;;0.70;0.40;;;;;;;15.45;84.57;96481.16;6228276;28;20231;-54
2023/10/25 13:21:30;;;;;;;0.63;0.50;;;;;;;15.57;83.92;96480.63;6227293;28;20381;-54
2023/10/25 13:24:32;;;;;;;1.27;0.50;;;;;;;15.66;87.39;96476.97;6223815;28;20243;-54
2023/10/25 13:27:35;;;;;;;0.40;0.40;;;;;;;15.55;83.03;96453.28;6227553;28;20223;-49
2023/10/25 13:30:38;;;;;;;3.50;0.53;;;;;;;15.71;85.55;96478.72;6226848;28;20325;-52
2023/10/25 13:33:40;;;;;;;1.80;0.50;;;;;;;15.75;85.12;96466.25;6227416;28;20259;-56
2023/10/25 13:36:44;;;;;;;2.37;0.60;;;;;;;15.70;86.36;96472.53;6227222;28;20236;-55
2023/10/25 13:39:46;;;;;;;0.63;0.50;;;;;;;15.52;86.56;96452.03;6224339;28;20711;-53
2023/10/25 13:42:48;;;;;;;2.20;0.43;;;;;;;15.61;86.66;96463.59;6224800;28;20235;-53
2023/10/25 13:45:51;;;;;;;1.17;0.60;;;;;;;15.57;87.36;96462.63;6227063;28;20219;-52
2023/10/25 13:48:53;;;;;;;1.33;0.50;;;;;;;15.57;87.04;96464.53;6227392;28;20234;-53
2023/10/25 13:51:55;;;;;;;1.47;0.40;;;;;;;15.56;87.57;96449.50;6227197;28;20239;-52
2023/10/25 13:54:57;;;;;;;0.40;0.40;;;;;;;15.66;84.29;96442.06;6231986;28;20243;-52
2023/10/25 13:58:00;;;;;;;0.50;0.50;;;;;;;15.57;84.13;96433.13;6228458;28;20327;-53
2023/10/25 14:01:03;;;;;;;0.83;0.50;;;;;;;15.66;86.38;96436.69;6227899;28;20244;-53
2023/10/25 14:04:05;;;;;;;0.60;0.40;;;;;;;15.53;86.92;96432.13;6226353;28;20238;-56
2023/10/25 14:07:08;;;;;;;0.40;0.40;;;;;;;15.45;85.21;96430.16;6226790;28;20271;-53
2023/10/25 14:10:10;;;;;;;0.53;0.53;;;;;;;15.51;86.75;96423.56;6230234;28;20696;-57
2023/10/25 14:13:13;;;;;;;0.50;0.50;;;;;;;15.64;85.49;96413.91;6225591;28;20240;-54
2023/10/25 14:16:35;;;;;;;0.93;0.70;;;;;;;15.57;86.16;96427.75;6225863;28;20289;-54